Terminal Aerodrome Forecast
Issued by NWS Grand Forks, ND

Home | Current Version | Previous Version | Text Only | Print | Product List | Glossary On
Versions: 1 2 3 4 5 6 7 8 9 10 11 12 13 14 15 16 17 18
000
FTUS43 KFGF 251600 AAA
TAFGFK
TAF AMD
KGFK 251627Z 2516/2612 32025G35KT P6SM OVC020
     FM252000 33020G30KT P6SM BKN025
     FM260100 33017G24KT P6SM BKN035
     FM260300 33009KT P6SM BKN050=

USA.gov is the U.S. government's official web portal to all federal, state and local government web resources and services.